sensor_id;sensor_type;location;lat;lon;timestamp;P1;durP1;ratioP1;P2;durP2;ratioP2
9729;SDS011;4904;49.152;11.004;2023-08-21T00:01:31;11.50;;;10.35;;
9729;SDS011;4904;49.152;11.004;2023-08-21T00:03:58;13.43;;;10.07;;
9729;SDS011;4904;49.152;11.004;2023-08-21T00:06:25;10.75;;;9.35;;
9729;SDS011;4904;49.152;11.004;2023-08-21T00:08:52;10.38;;;9.35;;
9729;SDS011;4904;49.152;11.004;2023-08-21T00:11:19;10.48;;;9.55;;
9729;SDS011;4904;49.152;11.004;2023-08-21T00:13:47;11.30;;;10.30;;
9729;SDS011;4904;49.152;11.004;2023-08-21T00:16:14;12.52;;;11.23;;
9729;SDS011;4904;49.152;11.004;2023-08-21T00:18:42;13.38;;;10.05;;
9729;SDS011;4904;49.152;11.004;2023-08-21T00:21:09;11.30;;;10.27;;
9729;SDS011;4904;49.152;11.004;2023-08-21T00:23:36;12.15;;;10.85;;
9729;SDS011;4904;49.152;11.004;2023-08-21T00:26:03;11.05;;;10.05;;
9729;SDS011;4904;49.152;11.004;2023-08-21T00:28:29;12.45;;;10.70;;
9729;SDS011;4904;49.152;11.004;2023-08-21T00:31:01;13.68;;;9.77;;
9729;SDS011;4904;49.152;11.004;2023-08-21T00:33:28;11.25;;;9.85;;
9729;SDS011;4904;49.152;11.004;2023-08-21T00:35:55;10.43;;;9.52;;
9729;SDS011;4904;49.152;11.004;2023-08-21T00:38:22;11.45;;;9.63;;
9729;SDS011;4904;49.152;11.004;2023-08-21T00:40:49;12.65;;;10.70;;
9729;SDS011;4904;49.152;11.004;2023-08-21T00:43:16;10.65;;;9.57;;
9729;SDS011;4904;49.152;11.004;2023-08-21T00:45:44;10.27;;;9.27;;
9729;SDS011;4904;49.152;11.004;2023-08-21T00:48:14;11.05;;;9.68;;
9729;SDS011;4904;49.152;11.004;2023-08-21T00:50:41;10.13;;;9.20;;
9729;SDS011;4904;49.152;11.004;2023-08-21T00:53:09;13.20;;;8.95;;
9729;SDS011;4904;49.152;11.004;2023-08-21T00:55:37;11.13;;;8.93;;
9729;SDS011;4904;49.152;11.004;2023-08-21T00:58:04;9.88;;;8.73;;
9729;SDS011;4904;49.152;11.004;2023-08-21T01:00:31;9.95;;;8.23;;
9729;SDS011;4904;49.152;11.004;2023-08-21T01:03:00;10.07;;;9.02;;
9729;SDS011;4904;49.152;11.004;2023-08-21T01:05:29;9.88;;;8.88;;
9729;SDS011;4904;49.152;11.004;2023-08-21T01:07:57;9.60;;;8.77;;
9729;SDS011;4904;49.152;11.004;2023-08-21T01:10:31;10.20;;;9.20;;
9729;SDS011;4904;49.152;11.004;2023-08-21T01:13:08;9.85;;;8.85;;
9729;SDS011;4904;49.152;11.004;2023-08-21T01:15:42;10.13;;;9.13;;
9729;SDS011;4904;49.152;11.004;2023-08-21T01:18:10;9.98;;;9.07;;
9729;SDS011;4904;49.152;11.004;2023-08-21T01:20:39;10.55;;;9.55;;
9729;SDS011;4904;49.152;11.004;2023-08-21T01:23:07;10.50;;;9.38;;
9729;SDS011;4904;49.152;11.004;2023-08-21T01:25:35;10.70;;;9.55;;
9729;SDS011;4904;49.152;11.004;2023-08-21T01:28:03;11.48;;;9.95;;
9729;SDS011;4904;49.152;11.004;2023-08-21T01:30:30;11.27;;;9.30;;
9729;SDS011;4904;49.152;11.004;2023-08-21T01:32:59;9.80;;;8.68;;
9729;SDS011;4904;49.152;11.004;2023-08-21T01:35:31;11.40;;;8.98;;
9729;SDS011;4904;49.152;11.004;2023-08-21T01:38:00;10.25;;;9.00;;
9729;SDS011;4904;49.152;11.004;2023-08-21T01:40:28;13.70;;;8.95;;
9729;SDS011;4904;49.152;11.004;2023-08-21T01:42:56;10.57;;;9.18;;
9729;SDS011;4904;49.152;11.004;2023-08-21T01:45:23;9.98;;;8.98;;
9729;SDS011;4904;49.152;11.004;2023-08-21T01:47:50;10.48;;;9.48;;
9729;SDS011;4904;49.152;11.004;2023-08-21T01:50:17;12.73;;;9.30;;
9729;SDS011;4904;49.152;11.004;2023-08-21T01:52:44;10.13;;;9.07;;
9729;SDS011;4904;49.152;11.004;2023-08-21T01:55:11;11.63;;;9.07;;
9729;SDS011;4904;49.152;11.004;2023-08-21T01:57:38;9.88;;;8.98;;
9729;SDS011;4904;49.152;11.004;2023-08-21T02:00:07;10.95;;;8.98;;
9729;SDS011;4904;49.152;11.004;2023-08-21T02:02:34;9.48;;;8.52;;
9729;SDS011;4904;49.152;11.004;2023-08-21T02:05:01;8.43;;;7.72;;
9729;SDS011;4904;49.152;11.004;2023-08-21T02:07:29;10.70;;;8.98;;
9729;SDS011;4904;49.152;11.004;2023-08-21T02:09:55;9.52;;;8.55;;
9729;SDS011;4904;49.152;11.004;2023-08-21T02:12:22;8.93;;;8.05;;
9729;SDS011;4904;49.152;11.004;2023-08-21T02:14:49;9.48;;;8.57;;
9729;SDS011;4904;49.152;11.004;2023-08-21T02:17:17;10.60;;;9.32;;
9729;SDS011;4904;49.152;11.004;2023-08-21T02:19:44;10.10;;;9.20;;
9729;SDS011;4904;49.152;11.004;2023-08-21T02:22:11;10.23;;;9.32;;
9729;SDS011;4904;49.152;11.004;2023-08-21T02:24:38;9.75;;;8.95;;
9729;SDS011;4904;49.152;11.004;2023-08-21T02:27:04;10.63;;;9.60;;
9729;SDS011;4904;49.152;11.004;2023-08-21T02:29:31;9.77;;;8.90;;
9729;SDS011;4904;49.152;11.004;2023-08-21T02:31:58;9.93;;;8.93;;
9729;SDS011;4904;49.152;11.004;2023-08-21T02:34:26;10.18;;;9.20;;
9729;SDS011;4904;49.152;11.004;2023-08-21T02:36:53;11.35;;;10.15;;
9729;SDS011;4904;49.152;11.004;2023-08-21T02:39:20;10.73;;;9.63;;
9729;SDS011;4904;49.152;11.004;2023-08-21T02:41:47;12.57;;;9.52;;
9729;SDS011;4904;49.152;11.004;2023-08-21T02:44:14;11.35;;;9.32;;
9729;SDS011;4904;49.152;11.004;2023-08-21T02:46:41;9.80;;;8.30;;
9729;SDS011;4904;49.152;11.004;2023-08-21T02:49:08;10.27;;;9.27;;
9729;SDS011;4904;49.152;11.004;2023-08-21T02:51:36;9.95;;;8.73;;
9729;SDS011;4904;49.152;11.004;2023-08-21T02:54:03;11.95;;;9.77;;
9729;SDS011;4904;49.152;11.004;2023-08-21T02:56:29;10.45;;;9.32;;
9729;SDS011;4904;49.152;11.004;2023-08-21T02:58:56;11.43;;;10.32;;
9729;SDS011;4904;49.152;11.004;2023-08-21T03:01:23;12.25;;;9.73;;
9729;SDS011;4904;49.152;11.004;2023-08-21T03:03:50;12.68;;;8.88;;
9729;SDS011;4904;49.152;11.004;2023-08-21T03:06:17;12.13;;;9.70;;
9729;SDS011;4904;49.152;11.004;2023-08-21T03:08:45;10.73;;;9.73;;
9729;SDS011;4904;49.152;11.004;2023-08-21T03:11:12;14.48;;;10.70;;
9729;SDS011;4904;49.152;11.004;2023-08-21T03:13:39;11.20;;;10.30;;
9729;SDS011;4904;49.152;11.004;2023-08-21T03:16:06;11.70;;;10.52;;
9729;SDS011;4904;49.152;11.004;2023-08-21T03:18:35;10.50;;;9.30;;
9729;SDS011;4904;49.152;11.004;2023-08-21T03:21:20;11.38;;;10.45;;
9729;SDS011;4904;49.152;11.004;2023-08-21T03:23:49;11.98;;;10.82;;
9729;SDS011;4904;49.152;11.004;2023-08-21T03:26:17;11.65;;;10.68;;
9729;SDS011;4904;49.152;11.004;2023-08-21T03:28:44;12.23;;;11.02;;
9729;SDS011;4904;49.152;11.004;2023-08-21T03:31:11;11.77;;;9.85;;
9729;SDS011;4904;49.152;11.004;2023-08-21T03:33:38;11.75;;;10.25;;
9729;SDS011;4904;49.152;11.004;2023-08-21T03:36:04;11.27;;;10.27;;
9729;SDS011;4904;49.152;11.004;2023-08-21T03:38:32;11.20;;;10.13;;
9729;SDS011;4904;49.152;11.004;2023-08-21T03:41:00;11.95;;;10.70;;
9729;SDS011;4904;49.152;11.004;2023-08-21T03:43:27;11.23;;;10.15;;
9729;SDS011;4904;49.152;11.004;2023-08-21T03:45:54;10.88;;;9.88;;
9729;SDS011;4904;49.152;11.004;2023-08-21T03:48:21;15.10;;;9.73;;
9729;SDS011;4904;49.152;11.004;2023-08-21T03:50:48;13.13;;;8.90;;
9729;SDS011;4904;49.152;11.004;2023-08-21T03:53:15;11.57;;;10.30;;
9729;SDS011;4904;49.152;11.004;2023-08-21T03:55:42;11.48;;;10.38;;
9729;SDS011;4904;49.152;11.004;2023-08-21T03:58:10;12.45;;;11.20;;
9729;SDS011;4904;49.152;11.004;2023-08-21T04:00:38;13.40;;;9.90;;
9729;SDS011;4904;49.152;11.004;2023-08-21T04:03:05;11.68;;;10.40;;
9729;SDS011;4904;49.152;11.004;2023-08-21T04:05:32;12.00;;;10.90;;
9729;SDS011;4904;49.152;11.004;2023-08-21T04:07:59;10.50;;;9.48;;
9729;SDS011;4904;49.152;11.004;2023-08-21T04:10:26;10.70;;;9.65;;
9729;SDS011;4904;49.152;11.004;2023-08-21T04:12:53;10.18;;;9.27;;
9729;SDS011;4904;49.152;11.004;2023-08-21T04:15:21;11.15;;;9.98;;
9729;SDS011;4904;49.152;11.004;2023-08-21T04:17:48;10.73;;;9.65;;
9729;SDS011;4904;49.152;11.004;2023-08-21T04:20:14;9.93;;;9.07;;
9729;SDS011;4904;49.152;11.004;2023-08-21T04:22:41;11.05;;;10.00;;
9729;SDS011;4904;49.152;11.004;2023-08-21T04:25:08;11.05;;;9.95;;
9729;SDS011;4904;49.152;11.004;2023-08-21T04:27:36;10.90;;;9.80;;
9729;SDS011;4904;49.152;11.004;2023-08-21T04:30:03;11.50;;;10.50;;
9729;SDS011;4904;49.152;11.004;2023-08-21T04:32:32;11.05;;;10.10;;
9729;SDS011;4904;49.152;11.004;2023-08-21T04:34:59;13.18;;;10.15;;
9729;SDS011;4904;49.152;11.004;2023-08-21T04:37:26;9.98;;;9.18;;
9729;SDS011;4904;49.152;11.004;2023-08-21T04:39:53;11.20;;;10.13;;
9729;SDS011;4904;49.152;11.004;2023-08-21T04:42:20;12.27;;;11.18;;
9729;SDS011;4904;49.152;11.004;2023-08-21T04:44:47;11.85;;;10.75;;
9729;SDS011;4904;49.152;11.004;2023-08-21T04:47:21;13.02;;;11.70;;
9729;SDS011;4904;49.152;11.004;2023-08-21T04:49:50;11.95;;;10.75;;
9729;SDS011;4904;49.152;11.004;2023-08-21T04:52:17;12.63;;;10.85;;
9729;SDS011;4904;49.152;11.004;2023-08-21T04:54:44;10.82;;;9.88;;
9729;SDS011;4904;49.152;11.004;2023-08-21T04:57:11;11.35;;;10.35;;
9729;SDS011;4904;49.152;11.004;2023-08-21T04:59:38;11.40;;;10.40;;
9729;SDS011;4904;49.152;11.004;2023-08-21T05:02:05;11.27;;;10.27;;
9729;SDS011;4904;49.152;11.004;2023-08-21T05:04:33;16.10;;;12.10;;
9729;SDS011;4904;49.152;11.004;2023-08-21T05:07:03;12.25;;;11.10;;
9729;SDS011;4904;49.152;11.004;2023-08-21T05:09:30;11.52;;;10.40;;
9729;SDS011;4904;49.152;11.004;2023-08-21T05:11:57;11.65;;;10.65;;
9729;SDS011;4904;49.152;11.004;2023-08-21T05:14:25;12.45;;;11.35;;
9729;SDS011;4904;49.152;11.004;2023-08-21T05:16:52;11.32;;;10.27;;
9729;SDS011;4904;49.152;11.004;2023-08-21T05:19:19;11.65;;;10.60;;
9729;SDS011;4904;49.152;11.004;2023-08-21T05:21:46;11.45;;;10.35;;
9729;SDS011;4904;49.152;11.004;2023-08-21T05:24:14;12.20;;;11.07;;
9729;SDS011;4904;49.152;11.004;2023-08-21T05:26:41;12.25;;;11.05;;
9729;SDS011;4904;49.152;11.004;2023-08-21T05:29:08;12.55;;;11.25;;
9729;SDS011;4904;49.152;11.004;2023-08-21T05:31:35;13.55;;;12.30;;
9729;SDS011;4904;49.152;11.004;2023-08-21T05:34:02;13.23;;;11.85;;
9729;SDS011;4904;49.152;11.004;2023-08-21T05:36:28;11.40;;;10.30;;
9729;SDS011;4904;49.152;11.004;2023-08-21T05:38:56;12.10;;;10.82;;
9729;SDS011;4904;49.152;11.004;2023-08-21T05:41:24;11.23;;;10.15;;
9729;SDS011;4904;49.152;11.004;2023-08-21T05:43:51;11.30;;;10.30;;
9729;SDS011;4904;49.152;11.004;2023-08-21T05:46:18;11.55;;;10.40;;
9729;SDS011;4904;49.152;11.004;2023-08-21T05:48:45;11.65;;;10.45;;
9729;SDS011;4904;49.152;11.004;2023-08-21T05:51:12;12.02;;;10.98;;
9729;SDS011;4904;49.152;11.004;2023-08-21T05:53:39;11.52;;;10.43;;
9729;SDS011;4904;49.152;11.004;2023-08-21T05:56:06;11.85;;;10.75;;
9729;SDS011;4904;49.152;11.004;2023-08-21T05:58:34;11.43;;;10.35;;
9729;SDS011;4904;49.152;11.004;2023-08-21T06:01:01;15.40;;;10.88;;
9729;SDS011;4904;49.152;11.004;2023-08-21T06:03:28;12.05;;;11.05;;
9729;SDS011;4904;49.152;11.004;2023-08-21T06:05:54;12.07;;;10.80;;
9729;SDS011;4904;49.152;11.004;2023-08-21T06:08:21;11.90;;;10.38;;
9729;SDS011;4904;49.152;11.004;2023-08-21T06:10:50;11.23;;;10.02;;
9729;SDS011;4904;49.152;11.004;2023-08-21T06:13:17;14.30;;;10.63;;
9729;SDS011;4904;49.152;11.004;2023-08-21T06:15:46;15.25;;;11.57;;
9729;SDS011;4904;49.152;11.004;2023-08-21T06:18:13;11.30;;;10.00;;
9729;SDS011;4904;49.152;11.004;2023-08-21T06:20:41;11.73;;;10.43;;
9729;SDS011;4904;49.152;11.004;2023-08-21T06:23:09;12.88;;;11.50;;
9729;SDS011;4904;49.152;11.004;2023-08-21T06:25:36;13.68;;;12.13;;
9729;SDS011;4904;49.152;11.004;2023-08-21T06:28:03;13.57;;;11.88;;
9729;SDS011;4904;49.152;11.004;2023-08-21T06:30:30;15.15;;;13.75;;
9729;SDS011;4904;49.152;11.004;2023-08-21T06:32:59;16.70;;;14.68;;
9729;SDS011;4904;49.152;11.004;2023-08-21T06:35:25;15.15;;;13.68;;
9729;SDS011;4904;49.152;11.004;2023-08-21T06:37:52;16.15;;;14.85;;
9729;SDS011;4904;49.152;11.004;2023-08-21T06:40:20;18.63;;;17.10;;
9729;SDS011;4904;49.152;11.004;2023-08-21T06:42:47;18.73;;;16.50;;
9729;SDS011;4904;49.152;11.004;2023-08-21T06:45:16;19.85;;;17.75;;
9729;SDS011;4904;49.152;11.004;2023-08-21T06:47:43;19.40;;;17.80;;
9729;SDS011;4904;49.152;11.004;2023-08-21T06:50:11;19.95;;;17.98;;
9729;SDS011;4904;49.152;11.004;2023-08-21T06:52:38;19.20;;;17.50;;
9729;SDS011;4904;49.152;11.004;2023-08-21T06:55:06;19.38;;;17.38;;
9729;SDS011;4904;49.152;11.004;2023-08-21T06:57:33;17.08;;;15.57;;
9729;SDS011;4904;49.152;11.004;2023-08-21T07:00:00;19.40;;;17.40;;
9729;SDS011;4904;49.152;11.004;2023-08-21T07:02:28;19.27;;;17.38;;
9729;SDS011;4904;49.152;11.004;2023-08-21T07:04:54;18.55;;;16.85;;
9729;SDS011;4904;49.152;11.004;2023-08-21T07:07:23;17.42;;;15.77;;
9729;SDS011;4904;49.152;11.004;2023-08-21T07:09:50;18.67;;;16.98;;
9729;SDS011;4904;49.152;11.004;2023-08-21T07:12:17;19.55;;;17.83;;
9729;SDS011;4904;49.152;11.004;2023-08-21T07:14:44;19.15;;;17.45;;
9729;SDS011;4904;49.152;11.004;2023-08-21T07:17:10;19.02;;;17.02;;
9729;SDS011;4904;49.152;11.004;2023-08-21T07:19:37;19.50;;;17.75;;
9729;SDS011;4904;49.152;11.004;2023-08-21T07:22:04;18.33;;;16.58;;
9729;SDS011;4904;49.152;11.004;2023-08-21T07:24:32;18.00;;;16.25;;
9729;SDS011;4904;49.152;11.004;2023-08-21T07:26:59;18.52;;;16.70;;
9729;SDS011;4904;49.152;11.004;2023-08-21T07:29:26;18.33;;;16.65;;
9729;SDS011;4904;49.152;11.004;2023-08-21T07:31:53;18.92;;;17.05;;
9729;SDS011;4904;49.152;11.004;2023-08-21T07:34:20;18.83;;;17.02;;
9729;SDS011;4904;49.152;11.004;2023-08-21T07:36:47;18.38;;;15.85;;
9729;SDS011;4904;49.152;11.004;2023-08-21T07:39:14;18.17;;;16.63;;
9729;SDS011;4904;49.152;11.004;2023-08-21T07:41:42;18.25;;;16.25;;
9729;SDS011;4904;49.152;11.004;2023-08-21T07:44:09;18.30;;;16.75;;
9729;SDS011;4904;49.152;11.004;2023-08-21T07:46:36;19.27;;;17.20;;
9729;SDS011;4904;49.152;11.004;2023-08-21T07:49:03;18.15;;;16.60;;
9729;SDS011;4904;49.152;11.004;2023-08-21T07:51:30;17.50;;;15.95;;
9729;SDS011;4904;49.152;11.004;2023-08-21T07:53:57;18.40;;;16.58;;
9729;SDS011;4904;49.152;11.004;2023-08-21T07:56:24;18.75;;;16.83;;
9729;SDS011;4904;49.152;11.004;2023-08-21T07:58:52;16.65;;;14.95;;
9729;SDS011;4904;49.152;11.004;2023-08-21T08:01:19;18.13;;;16.48;;
9729;SDS011;4904;49.152;11.004;2023-08-21T08:03:46;17.98;;;16.55;;
9729;SDS011;4904;49.152;11.004;2023-08-21T08:06:14;19.42;;;17.63;;
9729;SDS011;4904;49.152;11.004;2023-08-21T08:08:41;19.23;;;17.52;;
9729;SDS011;4904;49.152;11.004;2023-08-21T08:11:08;19.05;;;17.27;;
9729;SDS011;4904;49.152;11.004;2023-08-21T08:13:35;19.73;;;17.67;;
9729;SDS011;4904;49.152;11.004;2023-08-21T08:16:03;19.65;;;17.75;;
9729;SDS011;4904;49.152;11.004;2023-08-21T08:18:30;19.95;;;18.10;;
9729;SDS011;4904;49.152;11.004;2023-08-21T08:20:57;20.58;;;18.35;;
9729;SDS011;4904;49.152;11.004;2023-08-21T08:23:24;18.65;;;17.00;;
9729;SDS011;4904;49.152;11.004;2023-08-21T08:25:51;19.40;;;17.30;;
9729;SDS011;4904;49.152;11.004;2023-08-21T08:28:18;18.10;;;16.50;;
9729;SDS011;4904;49.152;11.004;2023-08-21T08:30:45;18.35;;;16.58;;
9729;SDS011;4904;49.152;11.004;2023-08-21T08:33:14;19.73;;;17.70;;
9729;SDS011;4904;49.152;11.004;2023-08-21T08:35:41;20.17;;;18.42;;
9729;SDS011;4904;49.152;11.004;2023-08-21T08:38:08;19.77;;;17.85;;
9729;SDS011;4904;49.152;11.004;2023-08-21T08:40:36;18.88;;;17.05;;
9729;SDS011;4904;49.152;11.004;2023-08-21T08:43:08;20.17;;;18.27;;
9729;SDS011;4904;49.152;11.004;2023-08-21T08:45:36;19.25;;;17.65;;
9729;SDS011;4904;49.152;11.004;2023-08-21T08:48:04;17.92;;;16.38;;
9729;SDS011;4904;49.152;11.004;2023-08-21T08:50:33;18.25;;;16.55;;
9729;SDS011;4904;49.152;11.004;2023-08-21T08:53:01;17.92;;;15.68;;
9729;SDS011;4904;49.152;11.004;2023-08-21T08:55:28;16.40;;;14.82;;
9729;SDS011;4904;49.152;11.004;2023-08-21T08:57:56;16.42;;;14.93;;
9729;SDS011;4904;49.152;11.004;2023-08-21T09:00:23;16.52;;;14.88;;
9729;SDS011;4904;49.152;11.004;2023-08-21T09:02:50;14.90;;;13.50;;
9729;SDS011;4904;49.152;11.004;2023-08-21T09:05:18;17.35;;;13.98;;
9729;SDS011;4904;49.152;11.004;2023-08-21T09:07:46;19.02;;;14.45;;
9729;SDS011;4904;49.152;11.004;2023-08-21T09:10:29;15.93;;;14.52;;
9729;SDS011;4904;49.152;11.004;2023-08-21T09:12:57;13.55;;;12.43;;
9729;SDS011;4904;49.152;11.004;2023-08-21T09:15:27;15.07;;;13.60;;
9729;SDS011;4904;49.152;11.004;2023-08-21T09:17:55;13.63;;;12.32;;
9729;SDS011;4904;49.152;11.004;2023-08-21T09:20:22;14.43;;;12.93;;
9729;SDS011;4904;49.152;11.004;2023-08-21T09:22:54;12.65;;;11.48;;
9729;SDS011;4904;49.152;11.004;2023-08-21T09:25:22;14.30;;;12.80;;
9729;SDS011;4904;49.152;11.004;2023-08-21T09:27:51;15.30;;;13.80;;
9729;SDS011;4904;49.152;11.004;2023-08-21T09:30:19;14.63;;;13.30;;
9729;SDS011;4904;49.152;11.004;2023-08-21T09:32:52;13.38;;;12.18;;
9729;SDS011;4904;49.152;11.004;2023-08-21T09:35:21;13.40;;;11.95;;
9729;SDS011;4904;49.152;11.004;2023-08-21T09:37:48;13.57;;;12.27;;
9729;SDS011;4904;49.152;11.004;2023-08-21T09:40:19;13.88;;;11.82;;
9729;SDS011;4904;49.152;11.004;2023-08-21T09:42:49;14.32;;;11.55;;
9729;SDS011;4904;49.152;11.004;2023-08-21T09:45:19;12.27;;;10.48;;
9729;SDS011;4904;49.152;11.004;2023-08-21T09:47:47;12.32;;;11.13;;
9729;SDS011;4904;49.152;11.004;2023-08-21T09:50:15;11.63;;;10.43;;
9729;SDS011;4904;49.152;11.004;2023-08-21T09:52:42;15.27;;;11.57;;
9729;SDS011;4904;49.152;11.004;2023-08-21T09:55:09;16.38;;;13.00;;
9729;SDS011;4904;49.152;11.004;2023-08-21T09:57:38;13.48;;;12.30;;
9729;SDS011;4904;49.152;11.004;2023-08-21T10:00:06;16.80;;;11.45;;
9729;SDS011;4904;49.152;11.004;2023-08-21T10:02:40;12.57;;;10.55;;
9729;SDS011;4904;49.152;11.004;2023-08-21T10:05:11;11.50;;;9.95;;
9729;SDS011;4904;49.152;11.004;2023-08-21T10:07:39;11.13;;;9.23;;
9729;SDS011;4904;49.152;11.004;2023-08-21T10:10:08;11.50;;;10.30;;
9729;SDS011;4904;49.152;11.004;2023-08-21T10:12:36;13.68;;;11.10;;
9729;SDS011;4904;49.152;11.004;2023-08-21T10:15:05;13.05;;;10.02;;
9729;SDS011;4904;49.152;11.004;2023-08-21T10:17:34;12.15;;;9.15;;
9729;SDS011;4904;49.152;11.004;2023-08-21T10:20:02;12.20;;;10.88;;
9729;SDS011;4904;49.152;11.004;2023-08-21T10:22:36;9.18;;;8.07;;
9729;SDS011;4904;49.152;11.004;2023-08-21T10:25:13;8.38;;;7.68;;
9729;SDS011;4904;49.152;11.004;2023-08-21T10:27:43;9.00;;;7.95;;
9729;SDS011;4904;49.152;11.004;2023-08-21T10:30:12;9.75;;;8.70;;
9729;SDS011;4904;49.152;11.004;2023-08-21T10:32:50;9.95;;;9.02;;
9729;SDS011;4904;49.152;11.004;2023-08-21T10:35:18;8.85;;;7.95;;
9729;SDS011;4904;49.152;11.004;2023-08-21T10:40:33;10.05;;;9.15;;
9729;SDS011;4904;49.152;11.004;2023-08-21T10:43:02;9.50;;;8.60;;
9729;SDS011;4904;49.152;11.004;2023-08-21T10:45:31;9.10;;;8.25;;
9729;SDS011;4904;49.152;11.004;2023-08-21T10:47:58;10.52;;;9.20;;
9729;SDS011;4904;49.152;11.004;2023-08-21T10:50:25;9.00;;;8.15;;
9729;SDS011;4904;49.152;11.004;2023-08-21T10:52:53;9.48;;;8.52;;
9729;SDS011;4904;49.152;11.004;2023-08-21T10:55:20;8.90;;;7.97;;
9729;SDS011;4904;49.152;11.004;2023-08-21T10:57:48;9.55;;;8.45;;
9729;SDS011;4904;49.152;11.004;2023-08-21T11:00:17;8.55;;;7.65;;
9729;SDS011;4904;49.152;11.004;2023-08-21T11:02:46;9.88;;;8.10;;
9729;SDS011;4904;49.152;11.004;2023-08-21T11:05:14;9.13;;;7.47;;
9729;SDS011;4904;49.152;11.004;2023-08-21T11:07:43;8.88;;;7.97;;
9729;SDS011;4904;49.152;11.004;2023-08-21T11:10:11;12.70;;;7.85;;
9729;SDS011;4904;49.152;11.004;2023-08-21T11:12:47;8.98;;;8.07;;
9729;SDS011;4904;49.152;11.004;2023-08-21T11:15:17;9.88;;;7.72;;
9729;SDS011;4904;49.152;11.004;2023-08-21T11:17:50;8.75;;;7.95;;
9729;SDS011;4904;49.152;11.004;2023-08-21T11:20:19;10.55;;;8.45;;
9729;SDS011;4904;49.152;11.004;2023-08-21T11:22:46;11.80;;;8.63;;
9729;SDS011;4904;49.152;11.004;2023-08-21T11:25:14;8.60;;;7.65;;
9729;SDS011;4904;49.152;11.004;2023-08-21T11:27:42;12.10;;;7.70;;
9729;SDS011;4904;49.152;11.004;2023-08-21T11:30:10;9.65;;;8.45;;
9729;SDS011;4904;49.152;11.004;2023-08-21T11:32:40;9.63;;;8.70;;
9729;SDS011;4904;49.152;11.004;2023-08-21T11:35:07;9.63;;;8.63;;
9729;SDS011;4904;49.152;11.004;2023-08-21T11:37:34;10.73;;;8.18;;
9729;SDS011;4904;49.152;11.004;2023-08-21T11:40:12;9.95;;;8.13;;
9729;SDS011;4904;49.152;11.004;2023-08-21T11:42:40;9.18;;;8.32;;
9729;SDS011;4904;49.152;11.004;2023-08-21T11:45:08;11.82;;;8.13;;
9729;SDS011;4904;49.152;11.004;2023-08-21T11:47:37;17.70;;;8.32;;
9729;SDS011;4904;49.152;11.004;2023-08-21T11:50:08;9.25;;;8.45;;
9729;SDS011;4904;49.152;11.004;2023-08-21T11:52:37;8.80;;;8.00;;
9729;SDS011;4904;49.152;11.004;2023-08-21T11:55:07;8.48;;;7.72;;
9729;SDS011;4904;49.152;11.004;2023-08-21T11:57:35;9.80;;;8.70;;
9729;SDS011;4904;49.152;11.004;2023-08-21T12:00:12;9.50;;;8.48;;
9729;SDS011;4904;49.152;11.004;2023-08-21T12:02:43;13.05;;;8.20;;
9729;SDS011;4904;49.152;11.004;2023-08-21T12:05:21;9.18;;;8.20;;
9729;SDS011;4904;49.152;11.004;2023-08-21T12:07:48;9.25;;;8.35;;
9729;SDS011;4904;49.152;11.004;2023-08-21T12:10:21;9.98;;;7.93;;
9729;SDS011;4904;49.152;11.004;2023-08-21T12:12:49;10.07;;;7.65;;
9729;SDS011;4904;49.152;11.004;2023-08-21T12:15:16;10.25;;;7.97;;
9729;SDS011;4904;49.152;11.004;2023-08-21T12:17:43;9.20;;;8.02;;
9729;SDS011;4904;49.152;11.004;2023-08-21T12:20:10;8.93;;;7.88;;
9729;SDS011;4904;49.152;11.004;2023-08-21T12:22:40;9.13;;;7.85;;
9729;SDS011;4904;49.152;11.004;2023-08-21T12:25:07;9.32;;;8.00;;
9729;SDS011;4904;49.152;11.004;2023-08-21T12:27:35;9.13;;;8.23;;
9729;SDS011;4904;49.152;11.004;2023-08-21T12:30:02;9.68;;;7.85;;
9729;SDS011;4904;49.152;11.004;2023-08-21T12:32:29;11.32;;;8.15;;
9729;SDS011;4904;49.152;11.004;2023-08-21T12:34:56;10.30;;;8.38;;
9729;SDS011;4904;49.152;11.004;2023-08-21T12:37:23;10.85;;;7.38;;
9729;SDS011;4904;49.152;11.004;2023-08-21T12:39:53;11.70;;;7.20;;
9729;SDS011;4904;49.152;11.004;2023-08-21T12:42:20;8.38;;;7.35;;
9729;SDS011;4904;49.152;11.004;2023-08-21T12:44:47;8.57;;;7.40;;
9729;SDS011;4904;49.152;11.004;2023-08-21T12:47:14;10.50;;;7.10;;
9729;SDS011;4904;49.152;11.004;2023-08-21T12:49:40;7.68;;;6.93;;
9729;SDS011;4904;49.152;11.004;2023-08-21T12:52:07;8.07;;;7.28;;
9729;SDS011;4904;49.152;11.004;2023-08-21T12:54:34;7.80;;;7.20;;
9729;SDS011;4904;49.152;11.004;2023-08-21T12:57:03;9.27;;;7.65;;
9729;SDS011;4904;49.152;11.004;2023-08-21T12:59:30;8.25;;;7.45;;
9729;SDS011;4904;49.152;11.004;2023-08-21T13:01:58;8.85;;;7.18;;
9729;SDS011;4904;49.152;11.004;2023-08-21T13:04:25;8.10;;;7.20;;
9729;SDS011;4904;49.152;11.004;2023-08-21T13:06:52;10.15;;;7.25;;
9729;SDS011;4904;49.152;11.004;2023-08-21T13:09:19;8.80;;;7.18;;
9729;SDS011;4904;49.152;11.004;2023-08-21T13:11:46;9.15;;;7.30;;
9729;SDS011;4904;49.152;11.004;2023-08-21T13:14:14;10.00;;;6.95;;
9729;SDS011;4904;49.152;11.004;2023-08-21T13:16:41;7.78;;;6.95;;
9729;SDS011;4904;49.152;11.004;2023-08-21T13:19:08;10.30;;;7.82;;
9729;SDS011;4904;49.152;11.004;2023-08-21T13:21:35;10.60;;;7.45;;
9729;SDS011;4904;49.152;11.004;2023-08-21T13:24:02;9.35;;;7.70;;
9729;SDS011;4904;49.152;11.004;2023-08-21T13:26:30;9.65;;;7.43;;
9729;SDS011;4904;49.152;11.004;2023-08-21T13:28:57;8.85;;;7.93;;
9729;SDS011;4904;49.152;11.004;2023-08-21T13:31:26;9.88;;;7.47;;
9729;SDS011;4904;49.152;11.004;2023-08-21T13:33:53;8.38;;;7.53;;
9729;SDS011;4904;49.152;11.004;2023-08-21T13:36:20;9.95;;;7.30;;
9729;SDS011;4904;49.152;11.004;2023-08-21T13:38:47;8.90;;;8.00;;
9729;SDS011;4904;49.152;11.004;2023-08-21T13:41:14;8.50;;;7.75;;
9729;SDS011;4904;49.152;11.004;2023-08-21T13:43:41;10.48;;;7.78;;
9729;SDS011;4904;49.152;11.004;2023-08-21T13:46:08;8.57;;;7.55;;
9729;SDS011;4904;49.152;11.004;2023-08-21T13:48:36;8.55;;;7.80;;
9729;SDS011;4904;49.152;11.004;2023-08-21T13:51:03;8.75;;;7.50;;
9729;SDS011;4904;49.152;11.004;2023-08-21T13:53:30;11.63;;;7.55;;
9729;SDS011;4904;49.152;11.004;2023-08-21T13:55:57;8.57;;;7.55;;
9729;SDS011;4904;49.152;11.004;2023-08-21T13:58:24;11.93;;;8.55;;
9729;SDS011;4904;49.152;11.004;2023-08-21T14:00:51;12.23;;;7.65;;
9729;SDS011;4904;49.152;11.004;2023-08-21T14:03:18;9.38;;;7.53;;
9729;SDS011;4904;49.152;11.004;2023-08-21T14:05:46;10.63;;;7.55;;
9729;SDS011;4904;49.152;11.004;2023-08-21T14:08:13;9.45;;;7.75;;
9729;SDS011;4904;49.152;11.004;2023-08-21T14:10:40;10.45;;;7.85;;
9729;SDS011;4904;49.152;11.004;2023-08-21T14:13:07;9.13;;;7.95;;
9729;SDS011;4904;49.152;11.004;2023-08-21T14:15:34;9.10;;;7.80;;
9729;SDS011;4904;49.152;11.004;2023-08-21T14:18:01;10.07;;;7.97;;
9729;SDS011;4904;49.152;11.004;2023-08-21T14:20:28;8.57;;;7.60;;
9729;SDS011;4904;49.152;11.004;2023-08-21T14:22:56;8.07;;;7.30;;
9729;SDS011;4904;49.152;11.004;2023-08-21T14:25:23;9.32;;;7.22;;
9729;SDS011;4904;49.152;11.004;2023-08-21T14:27:50;8.35;;;7.47;;
9729;SDS011;4904;49.152;11.004;2023-08-21T14:30:18;11.57;;;7.68;;
9729;SDS011;4904;49.152;11.004;2023-08-21T14:32:44;11.98;;;8.52;;
9729;SDS011;4904;49.152;11.004;2023-08-21T14:35:11;8.00;;;7.05;;
9729;SDS011;4904;49.152;11.004;2023-08-21T14:37:38;8.65;;;7.85;;
9729;SDS011;4904;49.152;11.004;2023-08-21T14:40:07;8.90;;;8.10;;
9729;SDS011;4904;49.152;11.004;2023-08-21T14:42:35;10.00;;;7.97;;
9729;SDS011;4904;49.152;11.004;2023-08-21T14:45:02;9.50;;;7.90;;
9729;SDS011;4904;49.152;11.004;2023-08-21T14:47:29;9.18;;;8.32;;
9729;SDS011;4904;49.152;11.004;2023-08-21T14:49:57;10.20;;;7.40;;
9729;SDS011;4904;49.152;11.004;2023-08-21T14:52:24;9.32;;;7.65;;